FW7515 Weather Reports


Display with metric or nautical units.
time (UTC)temp
F
wind
direction
speed
MPH
gust
MPH
rain 1hr
in
rain 24hr
in
rain mn
in
humidity
%
barometer
mb
20220119200648 54 66 8.0 9.0 0.00 0.00 0.00 62 1014.8
20220119200146 55 333 7.0 10.0 0.00 0.00 0.00 62 1014.6
20220119195645 55 60 8.0 13.0 0.00 0.00 0.00 62 1014.7
20220119195145 55 299 5.0 8.0 0.00 0.00 0.00 61 1014.6
20220119194643 56 101 5.0 7.0 0.00 0.00 0.00 61 1014.4
20220119194142 56 60 7.0 8.0 0.00 0.00 0.00 61 1014.3
20220119193641 56 29 9.0 14.0 0.00 0.00 0.00 61 1014.2
20220119193139 57 3 7.0 13.0 0.00 0.00 0.00 61 1013.9
20220119192638 57 76 9.0 11.0 0.00 0.00 0.00 60 1014.1
20220119192138 57 45 7.0 8.0 0.00 0.00 0.00 62 1014.0
20220119191638 56 8 7.0 11.0 0.00 0.00 0.00 62 1013.9
20220119191138 56 22 6.0 8.0 0.00 0.00 0.00 63 1013.9
20220119190638 56 85 6.0 10.0 0.00 0.00 0.00 64 1014.0
20220119190137 56 98 8.0 11.0 0.00 0.00 0.00 64 1014.2
20220119185635 55 67 7.0 10.0 0.00 0.00 0.00 64 1014.0
20220119185134 55 42 8.0 9.0 0.00 0.00 0.00 65 1014.0
20220119184635 55 61 8.0 9.0 0.00 0.00 0.00 65 1013.8
20220119184133 55 284 5.0 8.0 0.00 0.00 0.00 66 1014.0
20220119183632 55 73 8.0 10.0 0.00 0.00 0.00 66 1013.8
20220119183130 55 357 6.0 7.0 0.00 0.00 0.00 65 1014.1
20220119182629 55 61 8.0 11.0 0.00 0.00 0.00 64 1014.0
20220119182129 54 281 7.0 10.0 0.00 0.00 0.00 66 1014.1
20220119181629 54 79 4.0 6.0 0.00 0.00 0.00 65 1014.1
20220119181128 54 3 5.0 9.0 0.00 0.00 0.00 64 1013.9
20220119180628 55 327 7.0 11.0 0.00 0.00 0.00 63 1014.0
20220119180127 55 146 5.0 7.0 0.00 0.00 0.00 62 1014.1
20220119175627 55 58 5.0 6.0 0.00 0.00 0.00 61 1014.3
20220119175126 56 76 4.0 7.0 0.00 0.00 0.00 60 1014.1
20220119174625 56 54 6.0 10.0 0.00 0.00 0.00 59 1014.1
20220119174124 55 38 5.0 8.0 0.00 0.00 0.00 56 1014.0
20220119173624 55 81 4.0 8.0 0.00 0.00 0.00 55 1013.8
20220119173123 55 67 5.0 6.0 0.00 0.00 0.00 54 1013.7
20220119172622 55 71 3.0 5.0 0.00 0.00 0.00 54 1013.8
20220119172121 55 6 5.0 7.0 0.00 0.00 0.00 53 1013.6
20220119171619 55 41 1.0 2.0 0.00 0.00 0.00 55 1013.3
20220119171120 55 76 5.0 6.0 0.00 0.00 0.00 50 1013.3
20220119170618 55 49 4.0 9.0 0.00 0.00 0.00 51 1013.5
20220119170118 55 359 4.0 6.0 0.00 0.00 0.00 49 1013.8
20220119165617 57 320 5.0 7.0 0.00 0.00 0.00 47 1013.7
20220119165115 57 61 2.0 3.0 0.00 0.00 0.00 45 1013.6
20220119164614 59 326 3.0 3.0 0.00 0.00 0.00 44 1013.6
20220119164113 58 285 1.0 3.0 0.00 0.00 0.00 45 1013.4
20220119163612 59 279 1.0 1.0 0.00 0.00 0.00 44 1013.3
20220119163111 58 269 1.0 1.0 0.00 0.00 0.00 43 1013.4
20220119162612 58 335 2.0 3.0 0.00 0.00 0.00 42 1012.9
20220119162110 58 7 1.0 1.0 0.00 0.00 0.00 40 1012.8
20220119161609 58 285 4.0 6.0 0.00 0.00 0.00 40 1012.9
20220119161109 58 310 3.0 5.0 0.00 0.00 0.00 42 1013.0
20220119160608 58 333 3.0 5.0 0.00 0.00 0.00 47 1013.0
20220119160106 58 350 3.0 5.0 0.00 0.00 0.00 47 1012.6
20220119155606 59 306 3.0 3.0 0.00 0.00 0.00 49 1012.2
20220119155106 57 321 2.0 3.0 0.00 0.00 0.00 52 1012.2
20220119154605 57 13 0.0 1.0 0.00 0.00 0.00 55 1012.4
20220119154103 57 21 1.0 2.0 0.00 0.00 0.00 55 1012.1
20220119153602 57 304 2.0 2.0 0.00 0.00 0.00 56 1012.0
20220119153101 57 273 0.0 0.0 0.00 0.00 0.00 56 1012.0
20220119152559 57 219 2.0 2.0 0.00 0.00 0.00 55 1012.2
20220119152059 57 321 1.0 1.0 0.00 0.00 0.00 56 1011.8
20220119151559 57 280 1.0 2.0 0.00 0.00 0.00 57 1012.2
20220119151058 57 328 2.0 2.0 0.00 0.00 0.00 57 1012.3
20220119150557 59 336 4.0 5.0 0.00 0.00 0.00 56 1012.3
20220119150055 59 244 1.0 1.0 0.00 0.00 0.00 57 1012.1
20220119145554 59 251 0.0 1.0 0.00 0.00 0.00 60 1012.1
20220119145053 59 266 0.0 0.0 0.00 0.00 0.00 60 1011.8
20220119144552 59 262 0.0 0.0 0.00 0.00 0.00 60 1011.7
20220119144051 59 275 2.0 2.0 0.00 0.00 0.00 58 1011.4
20220119143550 59 241 1.0 1.0 0.00 0.00 0.00 58 1011.1
20220119143049 58 226 3.0 5.0 0.00 0.00 0.00 60 1011.1
20220119142548 57 224 3.0 5.0 0.00 0.00 0.00 62 1010.9
20220119142047 56 235 2.0 2.0 0.00 0.00 0.00 68 1010.3
20220119141546 56 243 1.0 1.0 0.00 0.00 0.00 69 1010.1
20220119141045 56 240 0.0 0.0 0.00 0.00 0.00 68 1010.3
20220119140543 56 253 0.0 0.0 0.00 0.00 0.00 69 1010.4
20220119140041 56 258 0.0 1.0 0.00 0.00 0.00 69 1010.5
20220119135542 56 326 0.0 1.0 0.00 0.00 0.00 68 1010.5
20220119135041 56 236 1.0 1.0 0.00 0.00 0.00 68 1010.6
20220119134540 56 251 0.0 0.0 0.00 0.00 0.00 69 1010.6
20220119134038 56 241 3.0 3.0 0.00 0.00 0.00 69 1010.4
20220119133537 56 229 2.0 2.0 0.00 0.00 0.00 69 1010.3
20220119133035 56 253 2.0 2.0 0.00 0.00 0.00 69 1010.1
20220119132534 56 235 1.0 2.0 0.00 0.00 0.00 69 1010.1
20220119132033 57 222 3.0 5.0 0.00 0.00 0.00 68 1010.1
20220119131532 57 235 2.0 2.0 0.00 0.00 0.00 67 1009.9
20220119131031 58 208 4.0 6.0 0.00 0.00 0.00 66 1009.8
20220119130531 58 171 7.0 8.0 0.00 0.00 0.00 66 1009.9
20220119130029 58 236 2.0 3.0 0.00 0.00 0.00 66 1009.8
20220119125527 58 200 5.0 7.0 0.00 0.00 0.00 67 1009.7
20220119125026 58 268 4.0 7.0 0.00 0.00 0.00 67 1009.6
20220119124527 58 285 4.0 7.0 0.00 0.00 0.00 68 1009.6
20220119124026 58 6 5.0 7.0 0.00 0.00 0.00 68 1009.4
20220119123524 58 261 7.0 11.0 0.00 0.00 0.00 68 1009.2
20220119123023 58 216 3.0 3.0 0.00 0.00 0.00 69 1009.4
20220119122522 58 223 4.0 7.0 0.00 0.00 0.00 69 1009.1
20220119122021 58 251 3.0 5.0 0.00 0.00 0.00 69 1009.0
20220119121520 58 74 7.0 9.0 0.00 0.00 0.00 70 1009.2
20220119121019 58 175 5.0 7.0 0.00 0.00 0.00 71 1009.1
20220119120517 57 265 5.0 7.0 0.00 0.00 0.00 71 1009.0
20220119120016 58 256 5.0 7.0 0.00 0.00 0.00 71 1009.0
20220119115515 58 46 3.0 5.0 0.00 0.00 0.00 71 1009.0
20220119115015 57 232 4.0 5.0 0.00 0.00 0.00 72 1009.0
20220119114515 58 280 2.0 2.0 0.00 0.00 0.00 72 1008.8
20220119114013 58 213 3.0 5.0 0.00 0.00 0.00 72 1008.6
20220119113512 58 23 4.0 6.0 0.00 0.00 0.00 72 1008.8
20220119113010 57 232 5.0 6.0 0.00 0.00 0.00 72 1008.7
20220119112509 58 249 4.0 7.0 0.00 0.00 0.00 72 1008.5
20220119112009 58 257 5.0 7.0 0.00 0.00 0.00 72 1008.6
20220119111509 58 203 4.0 6.0 0.00 0.00 0.00 72 1008.6
20220119111007 58 173 3.0 3.0 0.00 0.00 0.00 72 1008.5
20220119110507 58 279 3.0 5.0 0.00 0.00 0.00 73 1008.8
20220119110006 58 275 3.0 3.0 0.00 0.00 0.00 73 1008.7
20220119105504 58 278 4.0 6.0 0.00 0.00 0.00 73 1008.7
20220119105002 58 218 4.0 6.0 0.00 0.00 0.00 73 1008.7
20220119104503 58 89 4.0 6.0 0.00 0.00 0.00 73 1008.7
20220119104003 58 305 5.0 6.0 0.00 0.00 0.00 72 1008.4
20220119103502 58 231 3.0 5.0 0.00 0.00 0.00 73 1008.5
20220119103001 58 208 4.0 7.0 0.00 0.00 0.00 72 1008.1
20220119102501 59 246 3.0 5.0 0.00 0.00 0.00 72 1008.1
20220119101959 59 107 6.0 7.0 0.00 0.00 0.00 71 1008.4
20220119101458 59 240 4.0 6.0 0.00 0.00 0.00 71 1008.1
20220119100958 59 296 6.0 9.0 0.00 0.00 0.00 71 1008.0
20220119100457 59 207 4.0 7.0 0.00 0.00 0.00 71 1008.1
20220119095956 59 194 2.0 2.0 0.00 0.00 0.00 71 1008.0
20220119095456 59 271 5.0 7.0 0.00 0.00 0.00 71 1007.9
20220119094955 59 246 5.0 10.0 0.00 0.00 0.00 71 1007.7
20220119094454 59 211 4.0 7.0 0.00 0.00 0.00 71 1007.9
20220119093953 59 266 4.0 6.0 0.00 0.00 0.00 71 1008.3
20220119093452 59 91 6.0 8.0 0.00 0.00 0.00 71 1008.0
20220119092950 59 27 4.0 6.0 0.00 0.00 0.00 71 1008.0
20220119092448 59 274 5.0 7.0 0.00 0.00 0.00 71 1008.1
20220119091948 59 215 5.0 6.0 0.00 0.00 0.00 71 1008.0
20220119091448 60 23 4.0 6.0 0.00 0.00 0.00 70 1008.3
20220119090947 59 179 5.0 9.0 0.00 0.00 0.00 71 1008.1
20220119090446 60 219 4.0 6.0 0.00 0.00 0.00 70 1007.9
20220119085945 60 222 3.0 6.0 0.00 0.00 0.00 70 1007.8
20220119085445 60 240 3.0 5.0 0.00 0.00 0.00 70 1008.0
20220119084944 60 291 3.0 3.0 0.00 0.00 0.00 70 1008.3
20220119084443 60 211 5.0 8.0 0.00 0.00 0.00 70 1008.1
20220119083942 60 263 4.0 6.0 0.00 0.00 0.00 70 1007.7
20220119083441 60 262 3.0 6.0 0.00 0.00 0.00 70 1008.1
20220119082940 60 233 5.0 7.0 0.00 0.00 0.00 70 1007.8
20220119082438 60 254 3.0 3.0 0.00 0.00 0.00 70 1007.9
20220119081937 60 246 3.0 6.0 0.00 0.00 0.00 70 1008.1
20220119081437 60 265 4.0 7.0 0.00 0.00 0.00 69 1008.3
20220119080937 60 261 4.0 6.0 0.00 0.00 0.00 69 1008.0
20220119080436 60 158 4.0 6.0 0.00 0.00 0.00 69 1008.1
20220119075936 61 301 6.0 10.0 0.00 0.00 0.00 68 1008.4
20220119075435 61 252 5.0 7.0 0.00 0.00 0.00 68 1008.3
20220119074934 61 246 4.0 5.0 0.00 0.00 0.00 68 1008.4
20220119074433 61 205 3.0 3.0 0.00 0.00 0.00 68 1008.5
20220119073931 61 197 5.0 6.0 0.00 0.00 0.00 67 1008.7
20220119073430 61 89 5.0 7.0 0.00 0.00 0.00 67 1008.7
20220119072929 61 152 3.0 6.0 0.00 0.00 0.00 67 1008.7
20220119072429 61 309 4.0 6.0 0.00 0.00 0.00 67 1008.8
20220119071927 61 183 5.0 10.0 0.00 0.00 0.00 67 1008.6
20220119071425 61 309 3.0 5.0 0.00 0.00 0.00 67 1008.5
20220119070925 60 229 4.0 6.0 0.00 0.00 0.00 67 1008.3
20220119070424 60 170 4.0 6.0 0.00 0.00 0.00 67 1008.8
20220119065923 60 290 3.0 3.0 0.00 0.00 0.00 67 1008.4
20220119065423 60 321 4.0 6.0 0.00 0.00 0.00 67 1008.6
20220119064923 60 235 3.0 5.0 0.00 0.00 0.00 66 1008.5
20220119064422 60 127 4.0 6.0 0.00 0.00 0.00 66 1008.5
20220119063922 61 113 3.0 5.0 0.00 0.00 0.00 65 1008.8
20220119063420 61 248 2.0 2.0 0.00 0.00 0.00 65 1008.7
20220119062920 61 232 2.0 2.0 0.00 0.00 0.00 65 1008.8
20220119062418 61 216 2.0 3.0 0.00 0.00 0.00 64 1008.5
20220119061918 61 118 2.0 3.0 0.00 0.00 0.00 63 1008.7
20220119061416 62 302 5.0 7.0 0.00 0.00 0.00 63 1009.0
20220119060915 62 144 3.0 5.0 0.00 0.00 0.00 62 1008.9
20220119060414 62 235 4.0 5.0 0.00 0.00 0.00 61 1008.7
20220119055912 62 298 5.0 9.0 0.00 0.00 0.00 61 1008.7
20220119055411 63 259 5.0 7.0 0.00 0.00 0.00 61 1009.0
20220119054910 63 299 2.0 3.0 0.00 0.00 0.00 60 1008.5
20220119054409 63 185 3.0 5.0 0.00 0.00 0.00 60 1008.6
20220119053908 63 199 5.0 7.0 0.00 0.00 0.00 60 1008.8
20220119053407 63 162 5.0 7.0 0.00 0.00 0.00 59 1008.7
20220119052905 63 71 6.0 8.0 0.00 0.00 0.00 59 1008.7
20220119052406 63 285 5.0 7.0 0.00 0.00 0.00 59 1008.6
20220119051904 64 265 3.0 3.0 0.00 0.00 0.00 59 1008.9
20220119051403 64 12 6.0 11.0 0.00 0.00 0.00 58 1008.8
20220119050902 64 190 3.0 5.0 0.00 0.00 0.00 58 1008.7
20220119050402 64 246 8.0 13.0 0.00 0.00 0.00 58 1008.4
20220119045901 64 202 5.0 7.0 0.00 0.00 0.00 58 1008.5
20220119045400 64 263 5.0 6.0 0.00 0.00 0.00 57 1008.7
20220119044900 65 49 3.0 3.0 0.00 0.00 0.00 57 1008.7
20220119044359 64 151 4.0 7.0 0.00 0.00 0.00 57 1008.7
20220119043857 65 283 4.0 6.0 0.00 0.00 0.00 57 1008.7
20220119043356 65 44 7.0 8.0 0.00 0.00 0.00 56 1008.4
20220119042855 65 254 6.0 13.0 0.00 0.00 0.00 57 1008.6
20220119042353 65 232 4.0 8.0 0.00 0.00 0.00 57 1008.4
20220119041852 65 306 5.0 7.0 0.00 0.00 0.00 56 1008.4
20220119041351 65 259 3.0 6.0 0.00 0.00 0.00 56 1008.5
20220119040850 65 304 2.0 2.0 0.00 0.00 0.00 56 1008.4
20220119040349 65 306 3.0 3.0 0.00 0.00 0.00 56 1008.5
20220119035848 65 217 4.0 7.0 0.00 0.00 0.00 56 1008.5
20220119035346 65 263 3.0 5.0 0.00 0.00 0.00 56 1008.6
20220119034845 65 271 2.0 2.0 0.00 0.00 0.00 56 1008.4
20220119034344 65 299 4.0 7.0 0.00 0.00 0.00 56 1008.4
20220119033843 65 184 3.0 3.0 0.00 0.00 0.00 56 1008.6
20220119033341 65 279 4.0 6.0 0.00 0.00 0.00 56 1008.1
20220119032841 65 202 3.0 3.0 0.00 0.00 0.00 56 1008.4
20220119032339 65 198 5.0 6.0 0.00 0.00 0.00 55 1008.1
20220119031838 65 288 3.0 5.0 0.00 0.00 0.00 56 1008.1
20220119031337 65 297 2.0 3.0 0.00 0.00 0.00 55 1008.1
20220119030837 65 138 3.0 6.0 0.00 0.00 0.00 55 1008.1
20220119030336 66 191 4.0 5.0 0.00 0.00 0.00 55 1007.9
20220119025834 66 217 3.0 5.0 0.00 0.00 0.00 54 1008.3
20220119025333 66 266 3.0 5.0 0.00 0.00 0.00 55 1008.1
20220119024831 66 262 3.0 6.0 0.00 0.00 0.00 55 1007.8
20220119024330 66 246 3.0 7.0 0.00 0.00 0.00 55 1007.8
20220119023829 66 239 3.0 6.0 0.00 0.00 0.00 55 1007.7
20220119023329 66 255 4.0 7.0 0.00 0.00 0.00 55 1007.8
20220119022828 66 267 3.0 5.0 0.00 0.00 0.00 55 1007.7
20220119022327 66 194 5.0 7.0 0.00 0.00 0.00 55 1007.7
20220119021826 66 289 4.0 6.0 0.00 0.00 0.00 55 1007.7
20220119021326 66 282 3.0 3.0 0.00 0.00 0.00 54 1007.6
20220119020825 66 200 5.0 7.0 0.00 0.00 0.00 54 1007.7
20220119020324 66 319 5.0 6.0 0.00 0.00 0.00 54 1007.6
20220119015824 66 207 4.0 6.0 0.00 0.00 0.00 54 1007.7
20220119015323 66 272 3.0 7.0 0.00 0.00 0.00 54 1007.4
20220119014823 66 264 2.0 5.0 0.00 0.00 0.00 54 1007.6
20220119014322 66 182 1.0 2.0 0.00 0.00 0.00 54 1007.4
20220119013822 66 212 3.0 5.0 0.00 0.00 0.00 54 1007.7
20220119013322 66 270 4.0 6.0 0.00 0.00 0.00 54 1007.8
20220119012821 66 179 3.0 3.0 0.00 0.00 0.00 54 1007.7
20220119012320 66 208 4.0 7.0 0.00 0.00 0.00 53 1007.6
20220119011819 67 181 4.0 7.0 0.00 0.00 0.00 53 1007.6
20220119011320 67 66 5.0 7.0 0.00 0.00 0.00 53 1007.5
20220119010819 67 211 5.0 7.0 0.00 0.00 0.00 53 1007.3
20220119010317 67 155 4.0 8.0 0.00 0.00 0.00 53 1007.1
20220119005817 67 251 3.0 3.0 0.00 0.00 0.00 53 1007.1
20220119005315 67 212 1.0 1.0 0.00 0.00 0.00 53 1007.1
20220119004814 68 95 2.0 2.0 0.00 0.00 0.00 52 1007.2
20220119004312 68 223 2.0 3.0 0.00 0.00 0.00 52 1007.0
20220119003811 68 263 4.0 7.0 0.00 0.00 0.00 51 1007.0
20220119003311 69 124 3.0 5.0 0.00 0.00 0.00 50 1007.1
20220119002810 69 153 2.0 2.0 0.00 0.00 0.00 49 1007.0
20220119002309 69 299 1.0 2.0 0.00 0.00 0.00 49 1006.9
20220119001810 69 188 3.0 5.0 0.00 0.00 0.00 48 1006.8
20220119001309 69 235 2.0 3.0 0.00 0.00 0.00 49 1007.0
20220119000808 69 257 1.0 1.0 0.00 0.00 0.00 48 1006.9
20220119000307 70 298 1.0 3.0 0.00 0.00 0.00 48 1006.6
20220118235806 70 298 2.0 2.0 0.00 0.00 0.00 47 1006.7
20220118235306 71 249 3.0 3.0 0.00 0.00 0.00 47 1006.6
20220118234806 71 324 1.0 2.0 0.00 0.00 0.00 46 1006.7
20220118234304 71 199 2.0 3.0 0.00 0.00 0.00 46 1006.6
20220118233803 72 203 3.0 5.0 0.00 0.00 0.00 43 1006.6
20220118233302 73 191 3.0 5.0 0.00 0.00 0.00 40 1006.6
20220118232801 74 164 1.0 2.0 0.00 0.00 0.00 38 1006.5
20220118232259 74 241 2.0 3.0 0.00 0.00 0.00 37 1006.6
20220118231800 75 251 2.0 5.0 0.00 0.00 0.00 34 1006.6
20220118231259 76 208 2.0 2.0 0.00 0.00 0.00 30 1006.6
20220118230758 76 261 4.0 7.0 0.00 0.00 0.00 29 1006.6
20220118230257 77 233 2.0 3.0 0.00 0.00 0.00 29 1006.8
20220118225756 77 234 4.0 6.0 0.00 0.00 0.00 28 1006.4
20220118225254 77 253 1.0 1.0 0.00 0.00 0.00 28 1006.7
20220118224754 78 261 1.0 2.0 0.00 0.00 0.00 28 1006.4
20220118224252 78 222 4.0 6.0 0.00 0.00 0.00 28 1006.5
20220118223751 78 1 3.0 5.0 0.00 0.00 0.00 28 1006.6
20220118223252 78 185 3.0 3.0 0.00 0.00 0.00 31 1006.8
20220118222751 78 289 4.0 5.0 0.00 0.00 0.00 32 1006.4
20220118222250 78 318 2.0 3.0 0.00 0.00 0.00 30 1006.5
20220118221749 78 149 4.0 8.0 0.00 0.00 0.00 28 1006.7
20220118221247 78 272 2.0 2.0 0.00 0.00 0.00 29 1006.7
20220118220746 78 254 5.0 8.0 0.00 0.00 0.00 29 1006.5
20220118220244 78 262 3.0 3.0 0.00 0.00 0.00 30 1006.5
20220118215744 78 254 7.0 10.0 0.00 0.00 0.00 28 1006.7
20220118215242 78 251 5.0 8.0 0.00 0.00 0.00 29 1006.5
20220118214743 78 220 2.0 3.0 0.00 0.00 0.00 29 1006.6
20220118214242 78 105 5.0 6.0 0.00 0.00 0.00 29 1006.8
20220118213741 78 44 3.0 6.0 0.00 0.00 0.00 29 1006.7
20220118213242 78 281 6.0 10.0 0.00 0.00 0.00 30 1006.9
20220118212740 78 319 7.0 9.0 0.00 0.00 0.00 30 1006.7
20220118212239 78 295 2.0 6.0 0.00 0.00 0.00 30 1006.9
20220118211738 78 217 3.0 6.0 0.00 0.00 0.00 30 1006.8
20220118211237 77 183 3.0 5.0 0.00 0.00 0.00 30 1006.9
20220118210736 77 70 3.0 6.0 0.00 0.00 0.00 31 1007.1
20220118210235 77 188 6.0 7.0 0.00 0.00 0.00 31 1007.0
20220118205735 77 274 3.0 5.0 0.00 0.00 0.00 32 1007.1
20220118205235 76 305 2.0 3.0 0.00 0.00 0.00 34 1007.0
20220118204734 77 252 11.0 20.0 0.00 0.00 0.00 33 1007.5
20220118204233 76 237 5.0 8.0 0.00 0.00 0.00 35 1007.4
20220118203732 75 274 4.0 5.0 0.00 0.00 0.00 35 1007.5
20220118203231 75 321 3.0 7.0 0.00 0.00 0.00 36 1007.5
20220118202730 75 202 3.0 6.0 0.00 0.00 0.00 36 1007.6
20220118202229 75 233 4.0 6.0 0.00 0.00 0.00 36 1007.7
20220118201727 74 197 3.0 5.0 0.00 0.00 0.00 37 1007.6
20220118201226 74 239 7.0 10.0 0.00 0.00 0.00 37 1007.8